Main page
METAR-TAF:

METAR-TAF

Airports :

Pago Pago, United States Minor Outlying Islands

Pago Pago International Airport

latitude: 14-20S, longitude: 170-43W, elevation: 3 m

Current weather observation

The report was made 1 hour and 4 minutes ago, at 10:50 UTC
Wind 11 kt from the East
Temperature 28°C
Humidity 89%
Pressure 1010 hPa
Visibility: 16.1 km
Few clouds at a height of 2300 ft
Scattered clouds at a height of 10000 ft
Broken clouds at a height of 18000 ft

METAR: NSTU 201050Z 10011KT 10SM FEW023 SCT100 BKN180 28/26 A2983 RMK SLP100 T02810262 403190275

Time: 00:54 (11:54 UTC)

Forecast

The report was made 22 minutes ago, at 11:32 UTC
Forecast valid from 20 at 12 UTC to 21 at 12 UTC
Wind 12 kt from the East
Visibility: 10 km
Few clouds at a height of 2000 ft
Scattered clouds at a height of 4000 ft
Broken clouds at a height of 10000 ft
showers in vicinity

TAF: NSTU 201132Z 2012/2112 10012KT P6SM VCSH FEW020 SCT040 BKN100

Weather observations and forecasts of more than 4000 airports (METAR and TAF reports).

The available stations are represented by yellow and red dots on the map.

Hover mouse over dot to see the name of the station.

Then click to see weather observations and forecasts.

To change the map : click on the green buttons with a black cross to zoom in, on the green button with a dash to zoom out, or on the green arrows for adjacent maps.


METAR-TAF: